sensor_id;sensor_type;location;lat;lon;timestamp;temperature;humidity
43528;DHT22;52359;42.658;23.320;2023-04-24T09:23:30;21.90;88.70
43528;DHT22;52359;42.658;23.320;2023-04-24T09:25:57;21.30;88.60
43528;DHT22;52359;42.658;23.320;2023-04-24T09:28:41;21.80;87.60
43528;DHT22;52359;42.658;23.320;2023-04-24T09:31:11;21.80;86.40
43528;DHT22;52359;42.658;23.320;2023-04-24T09:33:38;21.40;85.90
43528;DHT22;52359;42.658;23.320;2023-04-24T09:36:04;21.70;85.20
43528;DHT22;52359;42.658;23.320;2023-04-24T09:38:36;22.00;85.40
43528;DHT22;52359;42.658;23.320;2023-04-24T09:41:04;21.40;85.50
43528;DHT22;52359;42.658;23.320;2023-04-24T09:43:30;21.70;84.10
43528;DHT22;52359;42.658;23.320;2023-04-24T09:45:57;22.60;84.90
43528;DHT22;52359;42.658;23.320;2023-04-24T09:48:34;23.10;83.00
43528;DHT22;52359;42.658;23.320;2023-04-24T09:51:01;22.30;80.90
43528;DHT22;52359;42.658;23.320;2023-04-24T09:55:55;23.60;83.80
43528;DHT22;52359;42.658;23.320;2023-04-24T09:58:25;23.60;81.40
43528;DHT22;52359;42.658;23.320;2023-04-24T10:00:54;25.10;79.40
43528;DHT22;52359;42.658;23.320;2023-04-24T10:03:20;24.30;74.50
43528;DHT22;52359;42.658;23.320;2023-04-24T10:05:46;24.60;75.30
43528;DHT22;52359;42.658;23.320;2023-04-24T10:08:12;24.60;75.50
43528;DHT22;52359;42.658;23.320;2023-04-24T10:10:43;25.20;75.20
43528;DHT22;52359;42.658;23.320;2023-04-24T10:13:10;25.20;76.60
43528;DHT22;52359;42.658;23.320;2023-04-24T10:15:37;24.20;74.20
43528;DHT22;52359;42.658;23.320;2023-04-24T10:18:04;24.50;74.60
43528;DHT22;52359;42.658;23.320;2023-04-24T10:20:32;24.90;76.50
43528;DHT22;52359;42.658;23.320;2023-04-24T10:25:29;25.40;75.80
43528;DHT22;52359;42.658;23.320;2023-04-24T10:27:56;26.50;80.80
43528;DHT22;52359;42.658;23.320;2023-04-24T10:30:32;25.30;77.00
43528;DHT22;52359;42.658;23.320;2023-04-24T10:33:05;26.10;73.80
43528;DHT22;52359;42.658;23.320;2023-04-24T10:35:34;26.20;74.80
43528;DHT22;52359;42.658;23.320;2023-04-24T10:40:34;26.90;73.80
43528;DHT22;52359;42.658;23.320;2023-04-24T10:43:02;28.00;75.00
43528;DHT22;52359;42.658;23.320;2023-04-24T10:45:28;26.70;70.60
43528;DHT22;52359;42.658;23.320;2023-04-24T10:47:58;26.30;69.70
43528;DHT22;52359;42.658;23.320;2023-04-24T10:50:27;27.10;68.80
43528;DHT22;52359;42.658;23.320;2023-04-24T10:52:55;27.40;68.30
43528;DHT22;52359;42.658;23.320;2023-04-24T10:55:43;27.20;68.60
43528;DHT22;52359;42.658;23.320;2023-04-24T10:58:09;26.40;67.40
43528;DHT22;52359;42.658;23.320;2023-04-24T11:00:40;26.20;69.20
43528;DHT22;52359;42.658;23.320;2023-04-24T11:03:22;26.60;69.60
43528;DHT22;52359;42.658;23.320;2023-04-24T11:08:23;26.50;68.30
43528;DHT22;52359;42.658;23.320;2023-04-24T11:24:48;23.20;67.60
43528;DHT22;52359;42.658;23.320;2023-04-24T11:27:21;22.50;67.50
43528;DHT22;52359;42.658;23.320;2023-04-24T11:32:38;22.10;72.30
43528;DHT22;52359;42.658;23.320;2023-04-24T11:35:15;23.60;73.60
43528;DHT22;52359;42.658;23.320;2023-04-24T11:37:44;22.00;76.40
43528;DHT22;52359;42.658;23.320;2023-04-24T11:40:15;21.50;76.70
43528;DHT22;52359;42.658;23.320;2023-04-24T11:42:45;21.20;76.40
43528;DHT22;52359;42.658;23.320;2023-04-24T11:45:14;20.80;77.50
43528;DHT22;52359;42.658;23.320;2023-04-24T11:47:40;20.80;77.20
43528;DHT22;52359;42.658;23.320;2023-04-24T11:50:11;21.00;79.40
43528;DHT22;52359;42.658;23.320;2023-04-24T11:52:39;21.10;81.30
43528;DHT22;52359;42.658;23.320;2023-04-24T11:57:46;23.80;77.90
43528;DHT22;52359;42.658;23.320;2023-04-24T12:02:46;23.50;81.00
43528;DHT22;52359;42.658;23.320;2023-04-24T12:05:24;22.80;78.20
43528;DHT22;52359;42.658;23.320;2023-04-24T12:07:50;22.80;76.90
43528;DHT22;52359;42.658;23.320;2023-04-24T12:10:24;23.80;73.70
43528;DHT22;52359;42.658;23.320;2023-04-24T12:12:50;23.50;73.70
43528;DHT22;52359;42.658;23.320;2023-04-24T12:15:18;25.70;71.40
43528;DHT22;52359;42.658;23.320;2023-04-24T12:17:45;23.30;72.00
43528;DHT22;52359;42.658;23.320;2023-04-24T12:20:12;23.00;74.30
43528;DHT22;52359;42.658;23.320;2023-04-24T12:22:47;23.60;73.20
43528;DHT22;52359;42.658;23.320;2023-04-24T12:25:15;22.90;74.10
43528;DHT22;52359;42.658;23.320;2023-04-24T12:27:41;22.40;73.70
43528;DHT22;52359;42.658;23.320;2023-04-24T12:30:12;23.00;73.70
43528;DHT22;52359;42.658;23.320;2023-04-24T12:32:49;23.60;70.70
43528;DHT22;52359;42.658;23.320;2023-04-24T12:35:21;22.90;71.40
43528;DHT22;52359;42.658;23.320;2023-04-24T12:37:47;22.70;71.60
43528;DHT22;52359;42.658;23.320;2023-04-24T12:40:14;24.50;70.60
43528;DHT22;52359;42.658;23.320;2023-04-24T12:42:48;23.60;69.10
43528;DHT22;52359;42.658;23.320;2023-04-24T12:45:16;22.20;72.40
43528;DHT22;52359;42.658;23.320;2023-04-24T12:47:42;22.00;71.90
43528;DHT22;52359;42.658;23.320;2023-04-24T12:50:11;21.40;73.70
43528;DHT22;52359;42.658;23.320;2023-04-24T12:52:37;21.80;73.50
43528;DHT22;52359;42.658;23.320;2023-04-24T12:55:03;22.80;72.80
43528;DHT22;52359;42.658;23.320;2023-04-24T12:57:30;21.90;74.40
43528;DHT22;52359;42.658;23.320;2023-04-24T12:59:58;21.00;75.80
43528;DHT22;52359;42.658;23.320;2023-04-24T13:02:25;21.00;75.70
43528;DHT22;52359;42.658;23.320;2023-04-24T13:04:52;21.00;76.20
43528;DHT22;52359;42.658;23.320;2023-04-24T13:07:17;22.20;75.30
43528;DHT22;52359;42.658;23.320;2023-04-24T13:09:44;22.60;73.90
43528;DHT22;52359;42.658;23.320;2023-04-24T13:12:10;24.20;75.40
43528;DHT22;52359;42.658;23.320;2023-04-24T13:14:37;25.50;68.80
43528;DHT22;52359;42.658;23.320;2023-04-24T13:17:03;28.90;67.70
43528;DHT22;52359;42.658;23.320;2023-04-24T13:19:29;30.50;63.80
43528;DHT22;52359;42.658;23.320;2023-04-24T13:21:56;31.10;61.70
43528;DHT22;52359;42.658;23.320;2023-04-24T13:24:23;30.40;60.60
43528;DHT22;52359;42.658;23.320;2023-04-24T13:26:52;30.10;58.60
43528;DHT22;52359;42.658;23.320;2023-04-24T13:29:18;29.90;59.70
43528;DHT22;52359;42.658;23.320;2023-04-24T13:31:44;30.30;61.30
43528;DHT22;52359;42.658;23.320;2023-04-24T13:34:09;28.80;61.50
43528;DHT22;52359;42.658;23.320;2023-04-24T13:36:35;28.00;62.70
43528;DHT22;52359;42.658;23.320;2023-04-24T13:39:02;29.80;62.50
43528;DHT22;52359;42.658;23.320;2023-04-24T13:41:30;29.30;61.30
43528;DHT22;52359;42.658;23.320;2023-04-24T13:43:55;30.30;62.40
43528;DHT22;52359;42.658;23.320;2023-04-24T13:48:50;30.40;65.50
43528;DHT22;52359;42.658;23.320;2023-04-24T13:51:16;30.40;64.30
43528;DHT22;52359;42.658;23.320;2023-04-24T13:53:41;30.90;63.70
43528;DHT22;52359;42.658;23.320;2023-04-24T13:56:07;29.60;63.10
43528;DHT22;52359;42.658;23.320;2023-04-24T13:58:34;30.60;63.60
43528;DHT22;52359;42.658;23.320;2023-04-24T14:01:08;31.90;62.40
43528;DHT22;52359;42.658;23.320;2023-04-24T14:03:33;32.60;60.60
43528;DHT22;52359;42.658;23.320;2023-04-24T14:05:59;27.10;60.70
43528;DHT22;52359;42.658;23.320;2023-04-24T14:08:25;26.40;63.20
43528;DHT22;52359;42.658;23.320;2023-04-24T14:10:51;25.10;65.50
43528;DHT22;52359;42.658;23.320;2023-04-24T14:13:17;23.90;68.30
43528;DHT22;52359;42.658;23.320;2023-04-24T14:15:42;24.00;70.70
43528;DHT22;52359;42.658;23.320;2023-04-24T14:18:08;23.90;70.90
43528;DHT22;52359;42.658;23.320;2023-04-24T14:20:34;23.50;70.80
43528;DHT22;52359;42.658;23.320;2023-04-24T14:22:59;23.50;72.90
43528;DHT22;52359;42.658;23.320;2023-04-24T14:25:25;23.30;73.60
43528;DHT22;52359;42.658;23.320;2023-04-24T14:32:43;21.90;78.80
43528;DHT22;52359;42.658;23.320;2023-04-24T14:35:09;21.50;80.40
43528;DHT22;52359;42.658;23.320;2023-04-24T14:37:35;21.30;81.70
43528;DHT22;52359;42.658;23.320;2023-04-24T14:40:02;20.90;84.50
43528;DHT22;52359;42.658;23.320;2023-04-24T15:53:17;17.40;93.10
43528;DHT22;52359;42.658;23.320;2023-04-24T15:55:47;17.20;93.90
43528;DHT22;52359;42.658;23.320;2023-04-24T16:00:39;17.00;95.80
43528;DHT22;52359;42.658;23.320;2023-04-24T17:21:13;14.60;99.90
43528;DHT22;52359;42.658;23.320;2023-04-24T17:23:39;14.90;99.90
43528;DHT22;52359;42.658;23.320;2023-04-24T17:26:05;14.80;99.90
43528;DHT22;52359;42.658;23.320;2023-04-24T17:28:31;14.70;99.90
43528;DHT22;52359;42.658;23.320;2023-04-24T17:30:58;14.60;99.90
43528;DHT22;52359;42.658;23.320;2023-04-24T17:33:28;14.60;99.90
43528;DHT22;52359;42.658;23.320;2023-04-24T17:35:56;14.50;99.90
43528;DHT22;52359;42.658;23.320;2023-04-24T17:38:23;14.40;99.90
43528;DHT22;52359;42.658;23.320;2023-04-24T17:40:49;14.40;99.90
43528;DHT22;52359;42.658;23.320;2023-04-24T17:43:19;14.40;99.90
43528;DHT22;52359;42.658;23.320;2023-04-24T17:50:38;14.30;99.90
43528;DHT22;52359;42.658;23.320;2023-04-24T17:53:04;14.30;99.90
43528;DHT22;52359;42.658;23.320;2023-04-24T17:55:29;14.30;99.90
43528;DHT22;52359;42.658;23.320;2023-04-24T17:57:55;14.20;99.90
43528;DHT22;52359;42.658;23.320;2023-04-24T18:00:21;14.10;99.90
43528;DHT22;52359;42.658;23.320;2023-04-24T18:02:46;14.10;99.90
43528;DHT22;52359;42.658;23.320;2023-04-24T18:05:14;14.20;99.90
43528;DHT22;52359;42.658;23.320;2023-04-24T18:07:39;14.00;99.90
43528;DHT22;52359;42.658;23.320;2023-04-24T18:10:05;13.90;99.90
43528;DHT22;52359;42.658;23.320;2023-04-24T18:12:31;13.80;99.90
43528;DHT22;52359;42.658;23.320;2023-04-24T18:14:57;13.60;99.90
43528;DHT22;52359;42.658;23.320;2023-04-24T18:17:23;13.60;99.90
43528;DHT22;52359;42.658;23.320;2023-04-24T18:19:49;13.50;99.90
43528;DHT22;52359;42.658;23.320;2023-04-24T18:22:15;13.30;99.90
43528;DHT22;52359;42.658;23.320;2023-04-24T18:24:40;13.30;99.90
43528;DHT22;52359;42.658;23.320;2023-04-24T18:27:06;13.00;99.90
43528;DHT22;52359;42.658;23.320;2023-04-24T18:29:31;12.70;99.90
43528;DHT22;52359;42.658;23.320;2023-04-24T18:31:57;12.50;99.90
43528;DHT22;52359;42.658;23.320;2023-04-24T18:34:23;12.30;99.90
43528;DHT22;52359;42.658;23.320;2023-04-24T18:36:48;12.20;99.90
43528;DHT22;52359;42.658;23.320;2023-04-24T18:49:02;12.60;99.90
43528;DHT22;52359;42.658;23.320;2023-04-24T18:51:28;12.60;99.90
43528;DHT22;52359;42.658;23.320;2023-04-24T18:53:55;12.70;99.90
43528;DHT22;52359;42.658;23.320;2023-04-24T18:56:20;12.70;99.90
43528;DHT22;52359;42.658;23.320;2023-04-24T18:58:46;12.70;99.90
43528;DHT22;52359;42.658;23.320;2023-04-24T19:01:11;12.70;99.90
43528;DHT22;52359;42.658;23.320;2023-04-24T19:03:37;12.60;99.90
43528;DHT22;52359;42.658;23.320;2023-04-24T19:06:03;12.70;99.90
43528;DHT22;52359;42.658;23.320;2023-04-24T19:08:28;12.70;99.90
43528;DHT22;52359;42.658;23.320;2023-04-24T19:10:54;12.70;99.90
43528;DHT22;52359;42.658;23.320;2023-04-24T19:13:20;12.70;99.90
43528;DHT22;52359;42.658;23.320;2023-04-24T19:15:45;12.70;99.90
43528;DHT22;52359;42.658;23.320;2023-04-24T19:18:11;12.80;99.90
43528;DHT22;52359;42.658;23.320;2023-04-24T19:20:37;12.80;99.90
